sensor_id;sensor_type;location;lat;lon;timestamp;P1;durP1;ratioP1;P2;durP2;ratioP2
40793;SDS011;26502;51.886;15.604;2023-03-01T00:00:33;26.50;;;15.80;;
40793;SDS011;26502;51.886;15.604;2023-03-01T00:05:57;30.60;;;16.70;;
40793;SDS011;26502;51.886;15.604;2023-03-01T00:11:04;29.10;;;15.60;;
40793;SDS011;26502;51.886;15.604;2023-03-01T00:16:13;30.30;;;14.60;;
40793;SDS011;26502;51.886;15.604;2023-03-01T00:21:21;33.30;;;16.80;;
40793;SDS011;26502;51.886;15.604;2023-03-01T00:26:28;27.00;;;15.30;;
40793;SDS011;26502;51.886;15.604;2023-03-01T00:31:34;30.70;;;16.40;;
40793;SDS011;26502;51.886;15.604;2023-03-01T00:36:42;28.10;;;15.60;;
40793;SDS011;26502;51.886;15.604;2023-03-01T00:41:48;29.80;;;16.80;;
40793;SDS011;26502;51.886;15.604;2023-03-01T00:46:54;31.80;;;16.90;;
40793;SDS011;26502;51.886;15.604;2023-03-01T00:52:00;35.20;;;17.40;;
40793;SDS011;26502;51.886;15.604;2023-03-01T00:57:06;41.00;;;18.20;;
40793;SDS011;26502;51.886;15.604;2023-03-01T01:02:12;34.50;;;17.50;;
40793;SDS011;26502;51.886;15.604;2023-03-01T01:07:19;34.10;;;18.40;;
40793;SDS011;26502;51.886;15.604;2023-03-01T01:12:25;29.70;;;16.60;;
40793;SDS011;26502;51.886;15.604;2023-03-01T01:17:31;33.60;;;19.00;;
40793;SDS011;26502;51.886;15.604;2023-03-01T01:22:38;34.00;;;18.30;;
40793;SDS011;26502;51.886;15.604;2023-03-01T01:27:45;33.40;;;18.90;;
40793;SDS011;26502;51.886;15.604;2023-03-01T01:32:51;32.70;;;16.70;;
40793;SDS011;26502;51.886;15.604;2023-03-01T01:37:57;33.70;;;17.50;;
40793;SDS011;26502;51.886;15.604;2023-03-01T01:43:20;33.70;;;17.30;;
40793;SDS011;26502;51.886;15.604;2023-03-01T01:48:29;32.70;;;16.70;;
40793;SDS011;26502;51.886;15.604;2023-03-01T01:53:44;35.60;;;18.20;;
40793;SDS011;26502;51.886;15.604;2023-03-01T01:58:55;36.40;;;18.10;;
40793;SDS011;26502;51.886;15.604;2023-03-01T02:04:02;36.40;;;18.00;;
40793;SDS011;26502;51.886;15.604;2023-03-01T02:09:10;38.40;;;18.80;;
40793;SDS011;26502;51.886;15.604;2023-03-01T02:14:19;37.00;;;18.50;;
40793;SDS011;26502;51.886;15.604;2023-03-01T02:19:34;30.90;;;16.80;;
40793;SDS011;26502;51.886;15.604;2023-03-01T02:24:50;31.30;;;16.70;;
40793;SDS011;26502;51.886;15.604;2023-03-01T02:30:10;30.10;;;15.90;;
40793;SDS011;26502;51.886;15.604;2023-03-01T02:35:17;30.70;;;16.70;;
40793;SDS011;26502;51.886;15.604;2023-03-01T02:40:24;28.60;;;15.80;;
40793;SDS011;26502;51.886;15.604;2023-03-01T02:45:33;27.90;;;15.50;;
40793;SDS011;26502;51.886;15.604;2023-03-01T02:50:47;28.40;;;15.20;;
40793;SDS011;26502;51.886;15.604;2023-03-01T02:56:08;29.00;;;15.30;;
40793;SDS011;26502;51.886;15.604;2023-03-01T03:01:17;36.60;;;17.10;;
40793;SDS011;26502;51.886;15.604;2023-03-01T03:06:24;34.80;;;17.40;;
40793;SDS011;26502;51.886;15.604;2023-03-01T03:11:31;34.40;;;15.50;;
40793;SDS011;26502;51.886;15.604;2023-03-01T03:16:37;33.40;;;18.20;;
40793;SDS011;26502;51.886;15.604;2023-03-01T03:21:45;35.00;;;16.50;;
40793;SDS011;26502;51.886;15.604;2023-03-01T03:26:52;35.00;;;16.90;;
40793;SDS011;26502;51.886;15.604;2023-03-01T03:32:01;34.70;;;16.00;;
40793;SDS011;26502;51.886;15.604;2023-03-01T03:37:07;31.90;;;15.90;;
40793;SDS011;26502;51.886;15.604;2023-03-01T03:42:33;32.30;;;15.50;;
40793;SDS011;26502;51.886;15.604;2023-03-01T03:47:39;35.70;;;18.10;;
40793;SDS011;26502;51.886;15.604;2023-03-01T03:52:46;31.60;;;15.20;;
40793;SDS011;26502;51.886;15.604;2023-03-01T03:57:52;35.90;;;15.70;;
40793;SDS011;26502;51.886;15.604;2023-03-01T04:03:01;28.60;;;15.40;;
40793;SDS011;26502;51.886;15.604;2023-03-01T04:08:07;37.30;;;16.60;;
40793;SDS011;26502;51.886;15.604;2023-03-01T04:13:14;22.90;;;12.70;;
40793;SDS011;26502;51.886;15.604;2023-03-01T04:18:23;29.80;;;15.90;;
40793;SDS011;26502;51.886;15.604;2023-03-01T04:23:29;37.60;;;16.20;;
40793;SDS011;26502;51.886;15.604;2023-03-01T04:28:36;28.00;;;15.70;;
40793;SDS011;26502;51.886;15.604;2023-03-01T04:33:46;38.60;;;17.70;;
40793;SDS011;26502;51.886;15.604;2023-03-01T04:38:54;52.40;;;25.10;;
40793;SDS011;26502;51.886;15.604;2023-03-01T04:44:00;52.10;;;24.90;;
40793;SDS011;26502;51.886;15.604;2023-03-01T04:49:07;62.50;;;28.60;;
40793;SDS011;26502;51.886;15.604;2023-03-01T04:54:13;59.20;;;29.10;;
40793;SDS011;26502;51.886;15.604;2023-03-01T04:59:19;60.10;;;26.90;;
40793;SDS011;26502;51.886;15.604;2023-03-01T05:04:26;64.10;;;30.00;;
40793;SDS011;26502;51.886;15.604;2023-03-01T05:09:33;57.00;;;27.10;;
40793;SDS011;26502;51.886;15.604;2023-03-01T05:14:39;58.50;;;28.20;;
40793;SDS011;26502;51.886;15.604;2023-03-01T05:19:45;58.70;;;28.20;;
40793;SDS011;26502;51.886;15.604;2023-03-01T05:24:51;63.30;;;27.70;;
40793;SDS011;26502;51.886;15.604;2023-03-01T05:29:58;55.00;;;27.60;;
40793;SDS011;26502;51.886;15.604;2023-03-01T05:35:17;56.20;;;26.70;;
40793;SDS011;26502;51.886;15.604;2023-03-01T05:40:23;55.80;;;26.80;;
40793;SDS011;26502;51.886;15.604;2023-03-01T05:45:30;48.50;;;24.40;;
40793;SDS011;26502;51.886;15.604;2023-03-01T05:50:37;49.90;;;22.70;;
40793;SDS011;26502;51.886;15.604;2023-03-01T05:55:45;49.60;;;25.30;;
40793;SDS011;26502;51.886;15.604;2023-03-01T06:00:52;53.70;;;26.90;;
40793;SDS011;26502;51.886;15.604;2023-03-01T06:05:59;52.40;;;22.10;;
40793;SDS011;26502;51.886;15.604;2023-03-01T06:11:05;55.20;;;24.50;;
40793;SDS011;26502;51.886;15.604;2023-03-01T06:16:11;53.50;;;23.70;;
40793;SDS011;26502;51.886;15.604;2023-03-01T06:21:18;43.90;;;22.10;;
40793;SDS011;26502;51.886;15.604;2023-03-01T06:26:25;45.40;;;20.40;;
40793;SDS011;26502;51.886;15.604;2023-03-01T06:31:31;90.50;;;36.60;;
40793;SDS011;26502;51.886;15.604;2023-03-01T06:36:37;70.50;;;29.80;;
40793;SDS011;26502;51.886;15.604;2023-03-01T06:41:43;73.70;;;33.30;;
40793;SDS011;26502;51.886;15.604;2023-03-01T06:46:49;72.70;;;33.60;;
40793;SDS011;26502;51.886;15.604;2023-03-01T06:51:56;75.40;;;34.80;;
40793;SDS011;26502;51.886;15.604;2023-03-01T06:57:02;72.60;;;31.00;;
40793;SDS011;26502;51.886;15.604;2023-03-01T07:02:10;210.50;;;92.70;;
40793;SDS011;26502;51.886;15.604;2023-03-01T07:07:18;59.10;;;29.50;;
40793;SDS011;26502;51.886;15.604;2023-03-01T07:12:24;48.70;;;23.90;;
40793;SDS011;26502;51.886;15.604;2023-03-01T07:17:30;109.80;;;51.70;;
40793;SDS011;26502;51.886;15.604;2023-03-01T07:22:36;55.70;;;27.60;;
40793;SDS011;26502;51.886;15.604;2023-03-01T07:27:49;37.30;;;19.20;;
40793;SDS011;26502;51.886;15.604;2023-03-01T07:32:56;42.90;;;19.30;;
40793;SDS011;26502;51.886;15.604;2023-03-01T07:38:03;42.30;;;20.60;;
40793;SDS011;26502;51.886;15.604;2023-03-01T07:43:09;46.30;;;24.60;;
40793;SDS011;26502;51.886;15.604;2023-03-01T07:48:16;47.60;;;24.50;;
40793;SDS011;26502;51.886;15.604;2023-03-01T07:53:22;53.90;;;29.60;;
40793;SDS011;26502;51.886;15.604;2023-03-01T07:58:28;59.90;;;31.40;;
40793;SDS011;26502;51.886;15.604;2023-03-01T08:03:35;51.10;;;28.00;;
40793;SDS011;26502;51.886;15.604;2023-03-01T08:08:41;47.40;;;26.00;;
40793;SDS011;26502;51.886;15.604;2023-03-01T08:13:48;68.40;;;34.10;;
40793;SDS011;26502;51.886;15.604;2023-03-01T08:18:54;57.70;;;29.60;;
40793;SDS011;26502;51.886;15.604;2023-03-01T08:24:05;59.60;;;31.20;;
40793;SDS011;26502;51.886;15.604;2023-03-01T08:29:13;46.40;;;26.30;;
40793;SDS011;26502;51.886;15.604;2023-03-01T08:34:19;61.30;;;32.90;;
40793;SDS011;26502;51.886;15.604;2023-03-01T08:39:25;47.20;;;24.20;;
40793;SDS011;26502;51.886;15.604;2023-03-01T08:44:31;46.80;;;23.30;;
40793;SDS011;26502;51.886;15.604;2023-03-01T08:49:38;42.60;;;21.80;;
40793;SDS011;26502;51.886;15.604;2023-03-01T08:54:44;38.80;;;19.60;;
40793;SDS011;26502;51.886;15.604;2023-03-01T08:59:51;39.60;;;20.80;;
40793;SDS011;26502;51.886;15.604;2023-03-01T09:04:59;33.60;;;18.00;;
40793;SDS011;26502;51.886;15.604;2023-03-01T09:10:06;30.20;;;17.50;;
40793;SDS011;26502;51.886;15.604;2023-03-01T09:15:13;34.30;;;18.60;;
40793;SDS011;26502;51.886;15.604;2023-03-01T09:20:19;31.60;;;16.50;;
40793;SDS011;26502;51.886;15.604;2023-03-01T09:25:26;33.90;;;17.60;;
40793;SDS011;26502;51.886;15.604;2023-03-01T09:30:32;26.20;;;15.90;;
40793;SDS011;26502;51.886;15.604;2023-03-01T09:35:39;29.80;;;17.60;;
40793;SDS011;26502;51.886;15.604;2023-03-01T09:40:49;30.30;;;15.80;;
40793;SDS011;26502;51.886;15.604;2023-03-01T09:45:55;26.60;;;14.90;;
40793;SDS011;26502;51.886;15.604;2023-03-01T09:51:09;41.70;;;23.50;;
40793;SDS011;26502;51.886;15.604;2023-03-01T09:56:24;86.20;;;54.10;;
40793;SDS011;26502;51.886;15.604;2023-03-01T10:01:38;23.30;;;12.60;;
40793;SDS011;26502;51.886;15.604;2023-03-01T10:06:49;17.50;;;10.20;;
40793;SDS011;26502;51.886;15.604;2023-03-01T10:12:01;27.70;;;14.10;;
40793;SDS011;26502;51.886;15.604;2023-03-01T10:17:12;27.00;;;14.30;;
40793;SDS011;26502;51.886;15.604;2023-03-01T10:22:30;24.80;;;15.00;;
40793;SDS011;26502;51.886;15.604;2023-03-01T10:27:40;22.40;;;13.30;;
40793;SDS011;26502;51.886;15.604;2023-03-01T10:32:53;21.70;;;11.40;;
40793;SDS011;26502;51.886;15.604;2023-03-01T10:38:04;17.40;;;10.70;;
40793;SDS011;26502;51.886;15.604;2023-03-01T10:43:12;23.10;;;11.20;;
40793;SDS011;26502;51.886;15.604;2023-03-01T10:48:19;18.70;;;11.00;;
40793;SDS011;26502;51.886;15.604;2023-03-01T10:53:29;19.50;;;11.40;;
40793;SDS011;26502;51.886;15.604;2023-03-01T11:03:45;18.60;;;10.10;;
40793;SDS011;26502;51.886;15.604;2023-03-01T11:09:14;34.00;;;20.00;;
40793;SDS011;26502;51.886;15.604;2023-03-01T11:14:23;20.30;;;12.10;;
40793;SDS011;26502;51.886;15.604;2023-03-01T11:19:31;17.70;;;10.10;;
40793;SDS011;26502;51.886;15.604;2023-03-01T11:24:39;13.20;;;8.10;;
40793;SDS011;26502;51.886;15.604;2023-03-01T11:34:57;12.10;;;7.70;;
40793;SDS011;26502;51.886;15.604;2023-03-01T11:40:12;16.60;;;8.10;;
40793;SDS011;26502;51.886;15.604;2023-03-01T11:45:20;12.80;;;5.90;;
40793;SDS011;26502;51.886;15.604;2023-03-01T11:50:33;13.90;;;6.80;;
40793;SDS011;26502;51.886;15.604;2023-03-01T11:55:54;12.50;;;8.20;;
40793;SDS011;26502;51.886;15.604;2023-03-01T12:01:10;10.90;;;7.40;;
40793;SDS011;26502;51.886;15.604;2023-03-01T12:06:30;10.40;;;6.70;;
40793;SDS011;26502;51.886;15.604;2023-03-01T12:11:50;10.50;;;6.60;;
40793;SDS011;26502;51.886;15.604;2023-03-01T12:17:19;10.00;;;6.40;;
40793;SDS011;26502;51.886;15.604;2023-03-01T12:22:37;13.00;;;8.50;;
40793;SDS011;26502;51.886;15.604;2023-03-01T13:19:35;10.90;;;6.40;;
40793;SDS011;26502;51.886;15.604;2023-03-01T13:24:45;10.70;;;6.80;;
40793;SDS011;26502;51.886;15.604;2023-03-01T13:29:53;11.20;;;6.60;;
40793;SDS011;26502;51.886;15.604;2023-03-01T13:35:03;21.00;;;12.10;;
40793;SDS011;26502;51.886;15.604;2023-03-01T13:40:59;9.40;;;6.70;;
40793;SDS011;26502;51.886;15.604;2023-03-01T13:46:16;8.00;;;5.40;;
40793;SDS011;26502;51.886;15.604;2023-03-01T13:51:27;9.30;;;5.50;;
40793;SDS011;26502;51.886;15.604;2023-03-01T13:56:36;8.30;;;5.70;;
40793;SDS011;26502;51.886;15.604;2023-03-01T14:01:44;12.90;;;6.90;;
40793;SDS011;26502;51.886;15.604;2023-03-01T14:07:12;8.50;;;5.30;;
40793;SDS011;26502;51.886;15.604;2023-03-01T14:12:26;8.90;;;6.00;;
40793;SDS011;26502;51.886;15.604;2023-03-01T14:17:52;13.10;;;6.30;;
40793;SDS011;26502;51.886;15.604;2023-03-01T14:23:10;8.50;;;5.70;;
40793;SDS011;26502;51.886;15.604;2023-03-01T14:28:20;9.70;;;6.20;;
40793;SDS011;26502;51.886;15.604;2023-03-01T14:38:37;9.10;;;5.20;;
40793;SDS011;26502;51.886;15.604;2023-03-01T14:43:45;10.40;;;6.20;;
40793;SDS011;26502;51.886;15.604;2023-03-01T14:48:56;12.10;;;7.30;;
40793;SDS011;26502;51.886;15.604;2023-03-01T14:54:16;9.70;;;5.90;;
40793;SDS011;26502;51.886;15.604;2023-03-01T14:59:29;8.90;;;5.30;;
40793;SDS011;26502;51.886;15.604;2023-03-01T15:04:38;11.30;;;7.30;;
40793;SDS011;26502;51.886;15.604;2023-03-01T15:14:52;9.80;;;5.40;;
40793;SDS011;26502;51.886;15.604;2023-03-01T15:20:02;7.70;;;5.10;;
40793;SDS011;26502;51.886;15.604;2023-03-01T15:25:15;9.20;;;5.00;;
40793;SDS011;26502;51.886;15.604;2023-03-01T15:30:25;18.00;;;10.20;;
40793;SDS011;26502;51.886;15.604;2023-03-01T15:35:41;10.50;;;5.70;;
40793;SDS011;26502;51.886;15.604;2023-03-01T15:40:52;10.90;;;5.40;;
40793;SDS011;26502;51.886;15.604;2023-03-01T15:46:01;9.80;;;5.80;;
40793;SDS011;26502;51.886;15.604;2023-03-01T15:51:11;9.00;;;5.50;;
40793;SDS011;26502;51.886;15.604;2023-03-01T15:56:19;8.10;;;5.00;;
40793;SDS011;26502;51.886;15.604;2023-03-01T16:01:28;11.50;;;5.80;;
40793;SDS011;26502;51.886;15.604;2023-03-01T16:06:37;8.70;;;5.60;;
40793;SDS011;26502;51.886;15.604;2023-03-01T16:11:46;8.20;;;4.80;;
40793;SDS011;26502;51.886;15.604;2023-03-01T16:16:54;8.90;;;4.70;;
40793;SDS011;26502;51.886;15.604;2023-03-01T16:22:06;5.90;;;5.00;;
40793;SDS011;26502;51.886;15.604;2023-03-01T16:27:14;11.30;;;5.40;;
40793;SDS011;26502;51.886;15.604;2023-03-01T16:32:25;8.10;;;5.00;;
40793;SDS011;26502;51.886;15.604;2023-03-01T16:37:33;9.60;;;5.10;;
40793;SDS011;26502;51.886;15.604;2023-03-01T16:42:43;8.80;;;4.70;;
40793;SDS011;26502;51.886;15.604;2023-03-01T16:47:52;10.60;;;5.10;;
40793;SDS011;26502;51.886;15.604;2023-03-01T16:53:00;12.50;;;5.80;;
40793;SDS011;26502;51.886;15.604;2023-03-01T16:58:08;10.00;;;5.60;;
40793;SDS011;26502;51.886;15.604;2023-03-01T17:03:16;9.20;;;5.40;;
40793;SDS011;26502;51.886;15.604;2023-03-01T17:08:23;7.90;;;5.20;;
40793;SDS011;26502;51.886;15.604;2023-03-01T17:13:31;8.50;;;4.90;;
40793;SDS011;26502;51.886;15.604;2023-03-01T17:18:41;10.40;;;5.30;;
40793;SDS011;26502;51.886;15.604;2023-03-01T17:23:49;8.40;;;5.00;;
40793;SDS011;26502;51.886;15.604;2023-03-01T17:29:02;10.00;;;5.10;;
40793;SDS011;26502;51.886;15.604;2023-03-01T17:34:12;14.90;;;5.30;;
40793;SDS011;26502;51.886;15.604;2023-03-01T17:39:21;12.20;;;5.40;;
40793;SDS011;26502;51.886;15.604;2023-03-01T17:44:33;9.50;;;4.60;;
40793;SDS011;26502;51.886;15.604;2023-03-01T17:49:41;11.20;;;4.90;;
40793;SDS011;26502;51.886;15.604;2023-03-01T17:54:52;10.60;;;5.80;;
40793;SDS011;26502;51.886;15.604;2023-03-01T18:00:02;8.30;;;4.90;;
40793;SDS011;26502;51.886;15.604;2023-03-01T18:05:16;9.50;;;5.10;;
40793;SDS011;26502;51.886;15.604;2023-03-01T18:10:28;10.80;;;5.30;;
40793;SDS011;26502;51.886;15.604;2023-03-01T18:15:40;9.60;;;5.10;;
40793;SDS011;26502;51.886;15.604;2023-03-01T18:20:56;30.50;;;13.30;;
40793;SDS011;26502;51.886;15.604;2023-03-01T18:26:09;16.20;;;7.50;;
40793;SDS011;26502;51.886;15.604;2023-03-01T18:31:23;11.40;;;5.80;;
40793;SDS011;26502;51.886;15.604;2023-03-01T18:36:32;14.60;;;6.90;;
40793;SDS011;26502;51.886;15.604;2023-03-01T18:41:42;19.50;;;8.30;;
40793;SDS011;26502;51.886;15.604;2023-03-01T18:46:59;9.50;;;5.90;;
40793;SDS011;26502;51.886;15.604;2023-03-01T18:52:17;13.90;;;6.40;;
40793;SDS011;26502;51.886;15.604;2023-03-01T18:57:32;13.80;;;6.50;;
40793;SDS011;26502;51.886;15.604;2023-03-01T19:02:43;12.90;;;6.00;;
40793;SDS011;26502;51.886;15.604;2023-03-01T19:07:55;9.60;;;5.70;;
40793;SDS011;26502;51.886;15.604;2023-03-01T19:13:05;13.30;;;6.00;;
40793;SDS011;26502;51.886;15.604;2023-03-01T19:18:15;20.60;;;8.10;;
40793;SDS011;26502;51.886;15.604;2023-03-01T19:23:27;9.90;;;5.20;;
40793;SDS011;26502;51.886;15.604;2023-03-01T19:28:41;13.90;;;5.50;;
40793;SDS011;26502;51.886;15.604;2023-03-01T19:33:51;12.80;;;6.20;;
40793;SDS011;26502;51.886;15.604;2023-03-01T19:39:02;13.10;;;6.20;;
40793;SDS011;26502;51.886;15.604;2023-03-01T19:44:14;15.20;;;6.70;;
40793;SDS011;26502;51.886;15.604;2023-03-01T19:49:34;18.40;;;8.40;;
40793;SDS011;26502;51.886;15.604;2023-03-01T19:54:47;21.20;;;8.60;;
40793;SDS011;26502;51.886;15.604;2023-03-01T19:59:57;18.20;;;7.70;;
40793;SDS011;26502;51.886;15.604;2023-03-01T20:05:17;14.40;;;7.50;;
40793;SDS011;26502;51.886;15.604;2023-03-01T20:10:27;15.80;;;7.40;;
40793;SDS011;26502;51.886;15.604;2023-03-01T20:15:40;17.10;;;8.50;;
40793;SDS011;26502;51.886;15.604;2023-03-01T20:20:52;17.80;;;8.90;;
40793;SDS011;26502;51.886;15.604;2023-03-01T20:26:07;18.70;;;8.70;;
40793;SDS011;26502;51.886;15.604;2023-03-01T20:31:26;20.10;;;9.00;;
40793;SDS011;26502;51.886;15.604;2023-03-01T20:36:38;21.80;;;10.40;;
40793;SDS011;26502;51.886;15.604;2023-03-01T20:41:50;21.30;;;10.80;;
40793;SDS011;26502;51.886;15.604;2023-03-01T20:46:59;26.10;;;12.30;;
40793;SDS011;26502;51.886;15.604;2023-03-01T20:52:10;25.60;;;9.40;;
40793;SDS011;26502;51.886;15.604;2023-03-01T20:57:22;30.70;;;13.40;;
40793;SDS011;26502;51.886;15.604;2023-03-01T21:02:30;23.90;;;12.70;;
40793;SDS011;26502;51.886;15.604;2023-03-01T21:07:41;26.00;;;12.90;;
40793;SDS011;26502;51.886;15.604;2023-03-01T21:12:50;24.90;;;12.20;;
40793;SDS011;26502;51.886;15.604;2023-03-01T21:17:59;27.90;;;12.80;;
40793;SDS011;26502;51.886;15.604;2023-03-01T21:23:08;30.20;;;13.40;;
40793;SDS011;26502;51.886;15.604;2023-03-01T21:28:15;30.20;;;13.40;;
40793;SDS011;26502;51.886;15.604;2023-03-01T21:33:23;27.80;;;12.50;;
40793;SDS011;26502;51.886;15.604;2023-03-01T21:38:32;33.60;;;15.30;;
40793;SDS011;26502;51.886;15.604;2023-03-01T21:48:48;33.80;;;13.80;;
40793;SDS011;26502;51.886;15.604;2023-03-01T21:53:58;27.50;;;12.30;;
40793;SDS011;26502;51.886;15.604;2023-03-01T21:59:06;32.60;;;15.00;;
40793;SDS011;26502;51.886;15.604;2023-03-01T22:04:18;33.60;;;15.70;;
40793;SDS011;26502;51.886;15.604;2023-03-01T22:09:25;36.70;;;15.60;;
40793;SDS011;26502;51.886;15.604;2023-03-01T22:14:32;31.20;;;15.60;;
40793;SDS011;26502;51.886;15.604;2023-03-01T22:19:40;40.50;;;17.90;;
40793;SDS011;26502;51.886;15.604;2023-03-01T22:24:49;32.70;;;15.80;;
40793;SDS011;26502;51.886;15.604;2023-03-01T22:29:56;32.50;;;16.30;;
40793;SDS011;26502;51.886;15.604;2023-03-01T22:35:04;35.30;;;16.30;;
40793;SDS011;26502;51.886;15.604;2023-03-01T22:40:13;34.40;;;16.70;;
40793;SDS011;26502;51.886;15.604;2023-03-01T22:45:25;34.50;;;17.80;;
40793;SDS011;26502;51.886;15.604;2023-03-01T22:50:40;35.20;;;17.20;;
40793;SDS011;26502;51.886;15.604;2023-03-01T22:55:48;26.00;;;13.60;;
40793;SDS011;26502;51.886;15.604;2023-03-01T23:00:55;35.00;;;17.20;;
40793;SDS011;26502;51.886;15.604;2023-03-01T23:06:05;30.90;;;14.60;;
40793;SDS011;26502;51.886;15.604;2023-03-01T23:11:14;31.70;;;14.60;;
40793;SDS011;26502;51.886;15.604;2023-03-01T23:16:25;27.00;;;14.20;;
40793;SDS011;26502;51.886;15.604;2023-03-01T23:21:35;31.50;;;15.10;;
40793;SDS011;26502;51.886;15.604;2023-03-01T23:26:46;31.40;;;16.90;;
40793;SDS011;26502;51.886;15.604;2023-03-01T23:31:56;34.60;;;17.10;;
40793;SDS011;26502;51.886;15.604;2023-03-01T23:37:10;44.00;;;20.30;;
40793;SDS011;26502;51.886;15.604;2023-03-01T23:42:17;39.50;;;20.30;;
40793;SDS011;26502;51.886;15.604;2023-03-01T23:47:25;32.10;;;16.00;;
40793;SDS011;26502;51.886;15.604;2023-03-01T23:52:37;30.60;;;14.90;;
40793;SDS011;26502;51.886;15.604;2023-03-01T23:57:51;30.50;;;14.90;;
